sensor_id;sensor_type;location;lat;lon;timestamp;P1;durP1;ratioP1;P2;durP2;ratioP2
81591;SDS011;71014;53.394;6.724;2023-08-20T00:01:06;12.98;;;4.78;;
81591;SDS011;71014;53.394;6.724;2023-08-20T00:05:58;8.48;;;4.40;;
81591;SDS011;71014;53.394;6.724;2023-08-20T00:08:25;12.18;;;4.88;;
81591;SDS011;71014;53.394;6.724;2023-08-20T00:10:51;10.43;;;4.28;;
81591;SDS011;71014;53.394;6.724;2023-08-20T00:13:17;8.85;;;4.30;;
81591;SDS011;71014;53.394;6.724;2023-08-20T00:15:43;10.88;;;4.57;;
81591;SDS011;71014;53.394;6.724;2023-08-20T00:18:09;8.45;;;4.22;;
81591;SDS011;71014;53.394;6.724;2023-08-20T00:20:35;16.90;;;5.93;;
81591;SDS011;71014;53.394;6.724;2023-08-20T00:23:01;9.45;;;4.65;;
81591;SDS011;71014;53.394;6.724;2023-08-20T00:25:28;9.50;;;4.88;;
81591;SDS011;71014;53.394;6.724;2023-08-20T00:27:54;9.40;;;4.80;;
81591;SDS011;71014;53.394;6.724;2023-08-20T00:30:20;13.85;;;5.07;;
81591;SDS011;71014;53.394;6.724;2023-08-20T00:32:46;12.82;;;5.03;;
81591;SDS011;71014;53.394;6.724;2023-08-20T00:35:12;10.85;;;3.85;;
81591;SDS011;71014;53.394;6.724;2023-08-20T00:37:38;10.20;;;4.38;;
81591;SDS011;71014;53.394;6.724;2023-08-20T00:40:04;8.95;;;3.92;;
81591;SDS011;71014;53.394;6.724;2023-08-20T00:42:30;11.23;;;4.13;;
81591;SDS011;71014;53.394;6.724;2023-08-20T00:44:56;11.00;;;4.32;;
81591;SDS011;71014;53.394;6.724;2023-08-20T00:47:22;9.15;;;4.50;;
81591;SDS011;71014;53.394;6.724;2023-08-20T00:49:48;6.50;;;4.53;;
81591;SDS011;71014;53.394;6.724;2023-08-20T00:52:15;8.05;;;3.88;;
81591;SDS011;71014;53.394;6.724;2023-08-20T00:54:44;5.90;;;3.92;;
81591;SDS011;71014;53.394;6.724;2023-08-20T00:57:11;7.00;;;3.67;;
81591;SDS011;71014;53.394;6.724;2023-08-20T00:59:39;5.40;;;3.67;;
81591;SDS011;71014;53.394;6.724;2023-08-20T01:02:06;8.20;;;3.90;;
81591;SDS011;71014;53.394;6.724;2023-08-20T01:04:32;11.85;;;5.03;;
81591;SDS011;71014;53.394;6.724;2023-08-20T01:12:18;12.07;;;5.22;;
81591;SDS011;71014;53.394;6.724;2023-08-20T01:14:45;9.63;;;4.82;;
81591;SDS011;71014;53.394;6.724;2023-08-20T01:17:11;7.78;;;4.85;;
81591;SDS011;71014;53.394;6.724;2023-08-20T01:19:37;9.60;;;4.50;;
81591;SDS011;71014;53.394;6.724;2023-08-20T01:25:14;9.95;;;4.22;;
81591;SDS011;71014;53.394;6.724;2023-08-20T01:30:06;8.32;;;5.20;;
81591;SDS011;71014;53.394;6.724;2023-08-20T01:32:33;9.60;;;4.40;;
81591;SDS011;71014;53.394;6.724;2023-08-20T01:35:00;8.65;;;4.53;;
81591;SDS011;71014;53.394;6.724;2023-08-20T01:37:26;9.82;;;4.57;;
81591;SDS011;71014;53.394;6.724;2023-08-20T01:39:52;8.73;;;4.28;;
81591;SDS011;71014;53.394;6.724;2023-08-20T01:42:18;7.55;;;4.25;;
81591;SDS011;71014;53.394;6.724;2023-08-20T01:44:44;10.13;;;4.93;;
81591;SDS011;71014;53.394;6.724;2023-08-20T01:47:10;10.98;;;4.85;;
81591;SDS011;71014;53.394;6.724;2023-08-20T01:49:36;6.75;;;4.30;;
81591;SDS011;71014;53.394;6.724;2023-08-20T01:52:02;9.80;;;4.50;;
81591;SDS011;71014;53.394;6.724;2023-08-20T01:54:29;10.40;;;4.03;;
81591;SDS011;71014;53.394;6.724;2023-08-20T01:56:55;7.88;;;4.22;;
81591;SDS011;71014;53.394;6.724;2023-08-20T01:59:21;7.97;;;5.05;;
81591;SDS011;71014;53.394;6.724;2023-08-20T02:01:48;11.23;;;3.90;;
81591;SDS011;71014;53.394;6.724;2023-08-20T02:04:14;8.52;;;4.47;;
81591;SDS011;71014;53.394;6.724;2023-08-20T02:06:40;6.93;;;4.00;;
81591;SDS011;71014;53.394;6.724;2023-08-20T02:09:06;8.13;;;4.65;;
81591;SDS011;71014;53.394;6.724;2023-08-20T02:11:32;9.15;;;4.72;;
81591;SDS011;71014;53.394;6.724;2023-08-20T02:14:01;7.05;;;4.50;;
81591;SDS011;71014;53.394;6.724;2023-08-20T02:16:27;8.30;;;4.10;;
81591;SDS011;71014;53.394;6.724;2023-08-20T02:18:53;10.95;;;4.80;;
81591;SDS011;71014;53.394;6.724;2023-08-20T02:21:19;9.20;;;4.55;;
81591;SDS011;71014;53.394;6.724;2023-08-20T02:23:45;6.70;;;4.07;;
81591;SDS011;71014;53.394;6.724;2023-08-20T02:26:11;9.40;;;5.20;;
81591;SDS011;71014;53.394;6.724;2023-08-20T02:28:37;8.77;;;4.43;;
81591;SDS011;71014;53.394;6.724;2023-08-20T02:31:04;10.05;;;4.45;;
81591;SDS011;71014;53.394;6.724;2023-08-20T02:33:31;10.98;;;4.13;;
81591;SDS011;71014;53.394;6.724;2023-08-20T02:36:03;12.43;;;5.00;;
81591;SDS011;71014;53.394;6.724;2023-08-20T02:38:29;13.30;;;6.10;;
81591;SDS011;71014;53.394;6.724;2023-08-20T02:40:55;9.82;;;5.65;;
81591;SDS011;71014;53.394;6.724;2023-08-20T02:43:21;14.52;;;5.10;;
81591;SDS011;71014;53.394;6.724;2023-08-20T02:45:48;9.18;;;5.68;;
81591;SDS011;71014;53.394;6.724;2023-08-20T02:48:14;14.43;;;5.57;;
81591;SDS011;71014;53.394;6.724;2023-08-20T02:50:40;11.60;;;4.70;;
81591;SDS011;71014;53.394;6.724;2023-08-20T02:53:06;6.85;;;3.83;;
81591;SDS011;71014;53.394;6.724;2023-08-20T02:55:33;10.77;;;5.15;;
81591;SDS011;71014;53.394;6.724;2023-08-20T02:58:00;8.43;;;4.55;;
81591;SDS011;71014;53.394;6.724;2023-08-20T03:00:28;8.05;;;4.45;;
81591;SDS011;71014;53.394;6.724;2023-08-20T03:02:54;9.15;;;4.85;;
81591;SDS011;71014;53.394;6.724;2023-08-20T03:05:21;6.38;;;4.85;;
81591;SDS011;71014;53.394;6.724;2023-08-20T03:07:47;9.90;;;4.55;;
81591;SDS011;71014;53.394;6.724;2023-08-20T03:10:14;8.13;;;5.53;;
81591;SDS011;71014;53.394;6.724;2023-08-20T03:12:40;14.80;;;4.90;;
81591;SDS011;71014;53.394;6.724;2023-08-20T03:15:06;11.63;;;4.65;;
81591;SDS011;71014;53.394;6.724;2023-08-20T03:17:32;9.88;;;4.85;;
81591;SDS011;71014;53.394;6.724;2023-08-20T03:19:59;10.98;;;5.32;;
81591;SDS011;71014;53.394;6.724;2023-08-20T03:22:25;10.02;;;5.72;;
81591;SDS011;71014;53.394;6.724;2023-08-20T03:24:53;10.32;;;4.93;;
81591;SDS011;71014;53.394;6.724;2023-08-20T03:27:19;8.93;;;4.57;;
81591;SDS011;71014;53.394;6.724;2023-08-20T03:29:45;9.50;;;4.57;;
81591;SDS011;71014;53.394;6.724;2023-08-20T03:32:11;15.13;;;5.00;;
81591;SDS011;71014;53.394;6.724;2023-08-20T03:34:37;9.45;;;5.18;;
81591;SDS011;71014;53.394;6.724;2023-08-20T03:37:04;11.00;;;4.75;;
81591;SDS011;71014;53.394;6.724;2023-08-20T03:39:30;13.07;;;5.28;;
81591;SDS011;71014;53.394;6.724;2023-08-20T03:41:56;11.15;;;6.10;;
81591;SDS011;71014;53.394;6.724;2023-08-20T03:44:23;11.68;;;5.07;;
81591;SDS011;71014;53.394;6.724;2023-08-20T03:46:49;10.75;;;4.32;;
81591;SDS011;71014;53.394;6.724;2023-08-20T03:49:15;11.23;;;5.30;;
81591;SDS011;71014;53.394;6.724;2023-08-20T03:51:41;9.30;;;6.30;;
81591;SDS011;71014;53.394;6.724;2023-08-20T03:54:07;8.13;;;5.50;;
81591;SDS011;71014;53.394;6.724;2023-08-20T03:56:34;13.57;;;6.18;;
81591;SDS011;71014;53.394;6.724;2023-08-20T03:59:00;13.27;;;5.55;;
81591;SDS011;71014;53.394;6.724;2023-08-20T04:01:26;10.18;;;5.13;;
81591;SDS011;71014;53.394;6.724;2023-08-20T04:03:52;15.45;;;6.72;;
81591;SDS011;71014;53.394;6.724;2023-08-20T04:06:18;11.30;;;5.65;;
81591;SDS011;71014;53.394;6.724;2023-08-20T04:08:44;13.20;;;8.23;;
81591;SDS011;71014;53.394;6.724;2023-08-20T04:11:10;11.70;;;6.50;;
81591;SDS011;71014;53.394;6.724;2023-08-20T04:13:36;12.32;;;6.10;;
81591;SDS011;71014;53.394;6.724;2023-08-20T04:16:02;14.90;;;7.03;;
81591;SDS011;71014;53.394;6.724;2023-08-20T04:18:28;15.65;;;7.13;;
81591;SDS011;71014;53.394;6.724;2023-08-20T04:20:54;12.32;;;6.38;;
81591;SDS011;71014;53.394;6.724;2023-08-20T04:23:22;13.40;;;5.50;;
81591;SDS011;71014;53.394;6.724;2023-08-20T04:25:48;9.85;;;5.88;;
81591;SDS011;71014;53.394;6.724;2023-08-20T04:28:14;8.77;;;5.00;;
81591;SDS011;71014;53.394;6.724;2023-08-20T04:30:40;9.68;;;5.65;;
81591;SDS011;71014;53.394;6.724;2023-08-20T04:33:06;9.43;;;5.13;;
81591;SDS011;71014;53.394;6.724;2023-08-20T04:35:33;10.93;;;5.47;;
81591;SDS011;71014;53.394;6.724;2023-08-20T04:37:59;10.10;;;5.40;;
81591;SDS011;71014;53.394;6.724;2023-08-20T04:40:25;7.63;;;5.00;;
81591;SDS011;71014;53.394;6.724;2023-08-20T04:42:51;8.95;;;5.72;;
81591;SDS011;71014;53.394;6.724;2023-08-20T04:45:17;11.00;;;5.75;;
81591;SDS011;71014;53.394;6.724;2023-08-20T04:47:44;10.73;;;5.97;;
81591;SDS011;71014;53.394;6.724;2023-08-20T04:50:10;7.47;;;4.85;;
81591;SDS011;71014;53.394;6.724;2023-08-20T04:52:36;7.95;;;5.45;;
81591;SDS011;71014;53.394;6.724;2023-08-20T04:55:03;10.25;;;5.88;;
81591;SDS011;71014;53.394;6.724;2023-08-20T04:57:29;7.47;;;5.13;;
81591;SDS011;71014;53.394;6.724;2023-08-20T04:59:55;10.18;;;5.00;;
81591;SDS011;71014;53.394;6.724;2023-08-20T05:02:21;10.85;;;6.53;;
81591;SDS011;71014;53.394;6.724;2023-08-20T05:04:48;10.95;;;5.93;;
81591;SDS011;71014;53.394;6.724;2023-08-20T05:07:14;8.95;;;5.75;;
81591;SDS011;71014;53.394;6.724;2023-08-20T05:09:40;9.98;;;5.78;;
81591;SDS011;71014;53.394;6.724;2023-08-20T05:12:06;8.65;;;5.65;;
81591;SDS011;71014;53.394;6.724;2023-08-20T05:14:32;13.40;;;6.25;;
81591;SDS011;71014;53.394;6.724;2023-08-20T05:16:58;9.07;;;5.45;;
81591;SDS011;71014;53.394;6.724;2023-08-20T05:19:24;16.80;;;7.18;;
81591;SDS011;71014;53.394;6.724;2023-08-20T05:21:50;12.25;;;6.40;;
81591;SDS011;71014;53.394;6.724;2023-08-20T05:24:20;11.23;;;5.10;;
81591;SDS011;71014;53.394;6.724;2023-08-20T05:26:46;11.40;;;4.95;;
81591;SDS011;71014;53.394;6.724;2023-08-20T05:29:13;9.57;;;4.82;;
81591;SDS011;71014;53.394;6.724;2023-08-20T05:31:39;8.93;;;5.78;;
81591;SDS011;71014;53.394;6.724;2023-08-20T05:34:05;8.82;;;5.70;;
81591;SDS011;71014;53.394;6.724;2023-08-20T05:36:33;8.10;;;5.05;;
81591;SDS011;71014;53.394;6.724;2023-08-20T05:38:59;8.88;;;5.57;;
81591;SDS011;71014;53.394;6.724;2023-08-20T05:41:25;10.13;;;5.22;;
81591;SDS011;71014;53.394;6.724;2023-08-20T05:43:51;8.95;;;4.82;;
81591;SDS011;71014;53.394;6.724;2023-08-20T05:46:17;9.13;;;4.55;;
81591;SDS011;71014;53.394;6.724;2023-08-20T05:48:43;11.43;;;4.85;;
81591;SDS011;71014;53.394;6.724;2023-08-20T05:51:09;10.13;;;4.97;;
81591;SDS011;71014;53.394;6.724;2023-08-20T05:53:35;9.63;;;6.03;;
81591;SDS011;71014;53.394;6.724;2023-08-20T05:56:01;10.48;;;5.50;;
81591;SDS011;71014;53.394;6.724;2023-08-20T05:58:27;9.88;;;5.78;;
81591;SDS011;71014;53.394;6.724;2023-08-20T06:00:53;8.50;;;4.40;;
81591;SDS011;71014;53.394;6.724;2023-08-20T06:03:19;9.85;;;5.22;;
81591;SDS011;71014;53.394;6.724;2023-08-20T06:05:45;14.52;;;7.65;;
81591;SDS011;71014;53.394;6.724;2023-08-20T06:08:11;11.60;;;5.28;;
81591;SDS011;71014;53.394;6.724;2023-08-20T06:10:37;6.95;;;4.97;;
81591;SDS011;71014;53.394;6.724;2023-08-20T06:13:03;9.73;;;5.07;;
81591;SDS011;71014;53.394;6.724;2023-08-20T06:15:30;11.15;;;6.25;;
81591;SDS011;71014;53.394;6.724;2023-08-20T06:17:56;11.35;;;4.88;;
81591;SDS011;71014;53.394;6.724;2023-08-20T06:20:22;7.30;;;4.43;;
81591;SDS011;71014;53.394;6.724;2023-08-20T06:22:48;11.02;;;5.72;;
81591;SDS011;71014;53.394;6.724;2023-08-20T06:25:14;11.90;;;5.10;;
81591;SDS011;71014;53.394;6.724;2023-08-20T06:30:06;9.68;;;4.70;;
81591;SDS011;71014;53.394;6.724;2023-08-20T06:32:34;11.40;;;3.92;;
81591;SDS011;71014;53.394;6.724;2023-08-20T06:35:00;9.60;;;5.43;;
81591;SDS011;71014;53.394;6.724;2023-08-20T06:37:26;10.30;;;5.45;;
81591;SDS011;71014;53.394;6.724;2023-08-20T06:39:52;8.00;;;4.00;;
81591;SDS011;71014;53.394;6.724;2023-08-20T06:42:18;8.45;;;4.50;;
81591;SDS011;71014;53.394;6.724;2023-08-20T06:44:44;10.45;;;5.13;;
81591;SDS011;71014;53.394;6.724;2023-08-20T06:47:10;10.05;;;4.50;;
81591;SDS011;71014;53.394;6.724;2023-08-20T06:49:36;7.57;;;4.18;;
81591;SDS011;71014;53.394;6.724;2023-08-20T06:52:02;12.82;;;4.95;;
81591;SDS011;71014;53.394;6.724;2023-08-20T06:54:28;9.73;;;4.05;;
81591;SDS011;71014;53.394;6.724;2023-08-20T06:56:54;12.18;;;6.25;;
81591;SDS011;71014;53.394;6.724;2023-08-20T06:59:20;8.73;;;4.57;;
81591;SDS011;71014;53.394;6.724;2023-08-20T07:01:47;9.50;;;3.80;;
81591;SDS011;71014;53.394;6.724;2023-08-20T07:04:13;8.10;;;3.80;;
81591;SDS011;71014;53.394;6.724;2023-08-20T07:06:39;6.13;;;3.90;;
81591;SDS011;71014;53.394;6.724;2023-08-20T07:09:06;8.85;;;3.67;;
81591;SDS011;71014;53.394;6.724;2023-08-20T07:11:32;10.07;;;3.88;;
81591;SDS011;71014;53.394;6.724;2023-08-20T07:13:58;7.55;;;3.30;;
81591;SDS011;71014;53.394;6.724;2023-08-20T07:16:25;6.13;;;3.72;;
81591;SDS011;71014;53.394;6.724;2023-08-20T07:18:50;8.23;;;3.88;;
81591;SDS011;71014;53.394;6.724;2023-08-20T07:21:18;9.93;;;3.55;;
81591;SDS011;71014;53.394;6.724;2023-08-20T07:23:44;9.05;;;3.28;;
81591;SDS011;71014;53.394;6.724;2023-08-20T07:26:10;8.30;;;4.07;;
81591;SDS011;71014;53.394;6.724;2023-08-20T07:28:40;8.63;;;4.00;;
81591;SDS011;71014;53.394;6.724;2023-08-20T07:31:22;8.32;;;3.33;;
81591;SDS011;71014;53.394;6.724;2023-08-20T07:33:48;7.13;;;3.67;;
81591;SDS011;71014;53.394;6.724;2023-08-20T07:36:15;8.88;;;3.75;;
81591;SDS011;71014;53.394;6.724;2023-08-20T07:41:11;6.15;;;3.05;;
81591;SDS011;71014;53.394;6.724;2023-08-20T07:43:37;10.27;;;3.65;;
81591;SDS011;71014;53.394;6.724;2023-08-20T07:46:04;10.63;;;3.50;;
81591;SDS011;71014;53.394;6.724;2023-08-20T07:48:30;9.85;;;3.40;;
81591;SDS011;71014;53.394;6.724;2023-08-20T07:50:56;8.88;;;3.53;;
81591;SDS011;71014;53.394;6.724;2023-08-20T07:53:22;6.35;;;3.20;;
81591;SDS011;71014;53.394;6.724;2023-08-20T07:55:48;9.32;;;3.65;;
81591;SDS011;71014;53.394;6.724;2023-08-20T08:00:40;8.48;;;2.75;;
81591;SDS011;71014;53.394;6.724;2023-08-20T08:03:06;9.95;;;3.22;;
81591;SDS011;71014;53.394;6.724;2023-08-20T08:05:34;5.97;;;2.83;;
81591;SDS011;71014;53.394;6.724;2023-08-20T08:08:00;8.43;;;2.55;;
81591;SDS011;71014;53.394;6.724;2023-08-20T08:10:26;10.02;;;3.17;;
81591;SDS011;71014;53.394;6.724;2023-08-20T08:12:52;11.52;;;4.07;;
81591;SDS011;71014;53.394;6.724;2023-08-20T08:15:18;10.48;;;2.95;;
81591;SDS011;71014;53.394;6.724;2023-08-20T08:17:44;7.38;;;3.15;;
81591;SDS011;71014;53.394;6.724;2023-08-20T08:20:10;6.22;;;2.58;;
81591;SDS011;71014;53.394;6.724;2023-08-20T08:22:36;8.82;;;2.80;;
81591;SDS011;71014;53.394;6.724;2023-08-20T08:25:02;7.50;;;2.33;;
81591;SDS011;71014;53.394;6.724;2023-08-20T08:29:54;8.43;;;2.58;;
81591;SDS011;71014;53.394;6.724;2023-08-20T08:32:20;6.80;;;2.00;;
81591;SDS011;71014;53.394;6.724;2023-08-20T08:34:46;7.25;;;2.65;;
81591;SDS011;71014;53.394;6.724;2023-08-20T08:37:12;8.77;;;2.33;;
81591;SDS011;71014;53.394;6.724;2023-08-20T08:39:40;9.65;;;2.53;;
81591;SDS011;71014;53.394;6.724;2023-08-20T08:42:06;10.25;;;2.90;;
81591;SDS011;71014;53.394;6.724;2023-08-20T08:44:32;12.32;;;2.55;;
81591;SDS011;71014;53.394;6.724;2023-08-20T08:46:58;7.78;;;2.97;;
81591;SDS011;71014;53.394;6.724;2023-08-20T08:51:51;6.90;;;2.47;;
81591;SDS011;71014;53.394;6.724;2023-08-20T08:54:19;6.47;;;2.22;;
81591;SDS011;71014;53.394;6.724;2023-08-20T08:56:45;8.40;;;2.70;;
81591;SDS011;71014;53.394;6.724;2023-08-20T08:59:12;4.43;;;1.83;;
81591;SDS011;71014;53.394;6.724;2023-08-20T09:01:38;7.65;;;2.35;;
81591;SDS011;71014;53.394;6.724;2023-08-20T09:04:07;5.95;;;1.83;;
81591;SDS011;71014;53.394;6.724;2023-08-20T09:06:52;5.72;;;1.80;;
81591;SDS011;71014;53.394;6.724;2023-08-20T09:09:19;7.80;;;1.70;;
81591;SDS011;71014;53.394;6.724;2023-08-20T09:11:46;5.38;;;1.75;;
81591;SDS011;71014;53.394;6.724;2023-08-20T09:14:45;8.68;;;2.88;;
81591;SDS011;71014;53.394;6.724;2023-08-20T09:17:04;7.60;;;1.67;;
81591;SDS011;71014;53.394;6.724;2023-08-20T09:19:34;5.22;;;1.30;;
81591;SDS011;71014;53.394;6.724;2023-08-20T09:22:02;4.85;;;1.50;;
81591;SDS011;71014;53.394;6.724;2023-08-20T09:24:32;7.13;;;1.70;;
81591;SDS011;71014;53.394;6.724;2023-08-20T09:26:59;4.47;;;1.60;;
81591;SDS011;71014;53.394;6.724;2023-08-20T09:31:51;8.77;;;1.75;;
81591;SDS011;71014;53.394;6.724;2023-08-20T09:34:25;5.40;;;1.70;;
81591;SDS011;71014;53.394;6.724;2023-08-20T09:36:52;5.75;;;2.25;;
81591;SDS011;71014;53.394;6.724;2023-08-20T09:41:44;5.47;;;1.60;;
81591;SDS011;71014;53.394;6.724;2023-08-20T09:44:13;6.55;;;1.77;;
81591;SDS011;71014;53.394;6.724;2023-08-20T09:46:40;9.68;;;1.92;;
81591;SDS011;71014;53.394;6.724;2023-08-20T09:49:07;8.27;;;1.85;;
81591;SDS011;71014;53.394;6.724;2023-08-20T09:51:35;7.75;;;2.20;;
81591;SDS011;71014;53.394;6.724;2023-08-20T09:54:13;6.57;;;2.00;;
81591;SDS011;71014;53.394;6.724;2023-08-20T09:56:39;8.75;;;2.03;;
81591;SDS011;71014;53.394;6.724;2023-08-20T09:59:05;8.15;;;2.35;;
81591;SDS011;71014;53.394;6.724;2023-08-20T10:01:32;5.95;;;1.50;;
81591;SDS011;71014;53.394;6.724;2023-08-20T10:03:58;7.25;;;1.40;;
81591;SDS011;71014;53.394;6.724;2023-08-20T10:06:25;5.90;;;1.80;;
81591;SDS011;71014;53.394;6.724;2023-08-20T10:08:51;9.93;;;1.73;;
81591;SDS011;71014;53.394;6.724;2023-08-20T10:11:18;5.82;;;1.85;;
81591;SDS011;71014;53.394;6.724;2023-08-20T10:13:44;4.43;;;1.48;;
81591;SDS011;71014;53.394;6.724;2023-08-20T10:16:11;5.38;;;1.10;;
81591;SDS011;71014;53.394;6.724;2023-08-20T10:18:38;7.63;;;1.63;;
81591;SDS011;71014;53.394;6.724;2023-08-20T10:21:05;6.03;;;1.20;;
81591;SDS011;71014;53.394;6.724;2023-08-20T10:23:34;6.18;;;1.55;;
81591;SDS011;71014;53.394;6.724;2023-08-20T10:26:10;6.43;;;1.70;;
81591;SDS011;71014;53.394;6.724;2023-08-20T10:28:36;4.97;;;1.42;;
81591;SDS011;71014;53.394;6.724;2023-08-20T10:31:12;3.63;;;1.30;;
81591;SDS011;71014;53.394;6.724;2023-08-20T10:33:47;5.30;;;1.50;;
81591;SDS011;71014;53.394;6.724;2023-08-20T10:36:15;5.95;;;1.50;;
81591;SDS011;71014;53.394;6.724;2023-08-20T10:38:42;5.95;;;1.40;;
81591;SDS011;71014;53.394;6.724;2023-08-20T10:41:10;4.43;;;1.38;;
81591;SDS011;71014;53.394;6.724;2023-08-20T10:43:42;6.68;;;1.42;;
81591;SDS011;71014;53.394;6.724;2023-08-20T10:46:18;4.97;;;1.40;;
81591;SDS011;71014;53.394;6.724;2023-08-20T10:48:48;5.75;;;1.73;;
81591;SDS011;71014;53.394;6.724;2023-08-20T10:51:15;4.40;;;1.15;;
81591;SDS011;71014;53.394;6.724;2023-08-20T10:53:42;4.00;;;1.15;;
81591;SDS011;71014;53.394;6.724;2023-08-20T10:56:12;5.32;;;1.50;;
81591;SDS011;71014;53.394;6.724;2023-08-20T10:58:46;5.10;;;1.30;;
81591;SDS011;71014;53.394;6.724;2023-08-20T11:01:13;3.15;;;1.60;;
81591;SDS011;71014;53.394;6.724;2023-08-20T11:03:45;5.70;;;1.60;;
81591;SDS011;71014;53.394;6.724;2023-08-20T11:06:12;5.15;;;1.17;;
81591;SDS011;71014;53.394;6.724;2023-08-20T11:08:38;7.32;;;1.45;;
81591;SDS011;71014;53.394;6.724;2023-08-20T11:11:08;4.90;;;1.55;;
81591;SDS011;71014;53.394;6.724;2023-08-20T11:13:34;3.22;;;1.02;;
81591;SDS011;71014;53.394;6.724;2023-08-20T11:16:04;6.18;;;1.38;;
81591;SDS011;71014;53.394;6.724;2023-08-20T11:18:31;3.17;;;1.05;;
81591;SDS011;71014;53.394;6.724;2023-08-20T11:20:58;3.47;;;1.15;;
81591;SDS011;71014;53.394;6.724;2023-08-20T11:23:25;4.22;;;1.23;;
81591;SDS011;71014;53.394;6.724;2023-08-20T11:25:51;5.90;;;1.30;;
81591;SDS011;71014;53.394;6.724;2023-08-20T11:28:17;3.72;;;1.40;;
81591;SDS011;71014;53.394;6.724;2023-08-20T11:30:43;4.38;;;1.25;;
81591;SDS011;71014;53.394;6.724;2023-08-20T11:33:09;7.47;;;1.35;;
81591;SDS011;71014;53.394;6.724;2023-08-20T11:35:35;4.32;;;1.30;;
81591;SDS011;71014;53.394;6.724;2023-08-20T11:38:02;5.03;;;1.58;;
81591;SDS011;71014;53.394;6.724;2023-08-20T11:40:29;2.85;;;1.02;;
81591;SDS011;71014;53.394;6.724;2023-08-20T11:42:55;3.83;;;1.15;;
81591;SDS011;71014;53.394;6.724;2023-08-20T11:45:21;5.43;;;1.48;;
81591;SDS011;71014;53.394;6.724;2023-08-20T11:47:47;5.10;;;1.00;;
81591;SDS011;71014;53.394;6.724;2023-08-20T11:50:13;4.53;;;1.10;;
81591;SDS011;71014;53.394;6.724;2023-08-20T11:52:39;4.18;;;1.20;;
81591;SDS011;71014;53.394;6.724;2023-08-20T11:55:05;2.45;;;0.85;;
81591;SDS011;71014;53.394;6.724;2023-08-20T11:57:31;6.13;;;1.63;;
81591;SDS011;71014;53.394;6.724;2023-08-20T12:00:04;4.45;;;1.20;;
81591;SDS011;71014;53.394;6.724;2023-08-20T12:02:33;3.55;;;1.20;;
81591;SDS011;71014;53.394;6.724;2023-08-20T12:04:59;5.30;;;1.20;;
81591;SDS011;71014;53.394;6.724;2023-08-20T12:07:26;4.47;;;1.02;;
81591;SDS011;71014;53.394;6.724;2023-08-20T12:09:52;4.93;;;1.25;;
81591;SDS011;71014;53.394;6.724;2023-08-20T12:12:19;4.00;;;1.40;;
81591;SDS011;71014;53.394;6.724;2023-08-20T12:14:46;5.03;;;1.65;;
81591;SDS011;71014;53.394;6.724;2023-08-20T12:17:12;4.95;;;1.20;;
81591;SDS011;71014;53.394;6.724;2023-08-20T12:19:39;4.22;;;1.27;;
81591;SDS011;71014;53.394;6.724;2023-08-20T12:22:05;4.18;;;1.10;;
81591;SDS011;71014;53.394;6.724;2023-08-20T12:24:31;4.82;;;1.30;;
81591;SDS011;71014;53.394;6.724;2023-08-20T12:26:57;4.15;;;1.45;;
81591;SDS011;71014;53.394;6.724;2023-08-20T12:29:23;6.47;;;1.27;;
81591;SDS011;71014;53.394;6.724;2023-08-20T12:31:49;5.22;;;1.30;;
81591;SDS011;71014;53.394;6.724;2023-08-20T12:34:15;6.10;;;1.65;;
81591;SDS011;71014;53.394;6.724;2023-08-20T12:36:41;5.93;;;1.30;;
81591;SDS011;71014;53.394;6.724;2023-08-20T12:39:07;8.88;;;2.08;;
81591;SDS011;71014;53.394;6.724;2023-08-20T12:41:33;5.90;;;1.95;;
81591;SDS011;71014;53.394;6.724;2023-08-20T12:44:01;6.13;;;1.55;;
81591;SDS011;71014;53.394;6.724;2023-08-20T12:46:27;7.45;;;1.70;;
81591;SDS011;71014;53.394;6.724;2023-08-20T12:48:53;7.85;;;2.60;;
81591;SDS011;71014;53.394;6.724;2023-08-20T12:51:19;9.48;;;1.75;;
81591;SDS011;71014;53.394;6.724;2023-08-20T12:53:46;8.50;;;2.10;;
81591;SDS011;71014;53.394;6.724;2023-08-20T12:56:12;4.18;;;1.85;;
81591;SDS011;71014;53.394;6.724;2023-08-20T12:58:39;6.72;;;1.63;;
81591;SDS011;71014;53.394;6.724;2023-08-20T13:01:05;5.70;;;2.08;;
81591;SDS011;71014;53.394;6.724;2023-08-20T13:03:32;5.15;;;1.52;;
81591;SDS011;71014;53.394;6.724;2023-08-20T13:05:58;5.40;;;1.55;;
81591;SDS011;71014;53.394;6.724;2023-08-20T13:08:24;7.82;;;2.47;;
81591;SDS011;71014;53.394;6.724;2023-08-20T13:10:53;6.05;;;1.80;;
81591;SDS011;71014;53.394;6.724;2023-08-20T13:13:20;8.65;;;1.95;;
81591;SDS011;71014;53.394;6.724;2023-08-20T13:15:47;6.63;;;1.45;;
81591;SDS011;71014;53.394;6.724;2023-08-20T13:18:14;7.68;;;1.92;;
81591;SDS011;71014;53.394;6.724;2023-08-20T13:20:40;6.15;;;1.58;;
81591;SDS011;71014;53.394;6.724;2023-08-20T13:23:07;7.80;;;2.00;;
81591;SDS011;71014;53.394;6.724;2023-08-20T13:25:33;7.90;;;1.52;;
81591;SDS011;71014;53.394;6.724;2023-08-20T13:27:59;8.63;;;2.22;;
81591;SDS011;71014;53.394;6.724;2023-08-20T13:30:25;5.15;;;1.80;;
81591;SDS011;71014;53.394;6.724;2023-08-20T13:32:51;6.22;;;1.40;;
81591;SDS011;71014;53.394;6.724;2023-08-20T13:35:17;8.02;;;1.90;;
81591;SDS011;71014;53.394;6.724;2023-08-20T13:37:43;7.35;;;1.95;;
81591;SDS011;71014;53.394;6.724;2023-08-20T13:40:10;5.60;;;1.45;;
81591;SDS011;71014;53.394;6.724;2023-08-20T13:42:36;5.22;;;1.55;;
81591;SDS011;71014;53.394;6.724;2023-08-20T13:45:02;7.10;;;2.03;;
81591;SDS011;71014;53.394;6.724;2023-08-20T13:47:29;7.00;;;1.65;;
81591;SDS011;71014;53.394;6.724;2023-08-20T13:49:55;6.82;;;1.67;;
81591;SDS011;71014;53.394;6.724;2023-08-20T13:52:21;5.90;;;1.60;;
81591;SDS011;71014;53.394;6.724;2023-08-20T13:54:47;7.32;;;1.90;;
81591;SDS011;71014;53.394;6.724;2023-08-20T13:57:13;5.85;;;1.70;;
81591;SDS011;71014;53.394;6.724;2023-08-20T13:59:39;7.78;;;2.25;;
81591;SDS011;71014;53.394;6.724;2023-08-20T14:02:05;7.72;;;1.52;;
81591;SDS011;71014;53.394;6.724;2023-08-20T14:04:31;6.45;;;1.83;;
81591;SDS011;71014;53.394;6.724;2023-08-20T14:06:57;6.70;;;1.83;;
81591;SDS011;71014;53.394;6.724;2023-08-20T14:09:23;6.70;;;1.88;;
81591;SDS011;71014;53.394;6.724;2023-08-20T14:11:50;7.20;;;1.95;;
81591;SDS011;71014;53.394;6.724;2023-08-20T14:14:16;6.93;;;1.90;;
81591;SDS011;71014;53.394;6.724;2023-08-20T14:16:42;4.32;;;1.40;;
81591;SDS011;71014;53.394;6.724;2023-08-20T14:19:08;5.63;;;1.90;;
81591;SDS011;71014;53.394;6.724;2023-08-20T14:21:34;5.68;;;1.48;;
81591;SDS011;71014;53.394;6.724;2023-08-20T14:24:00;6.82;;;2.03;;
81591;SDS011;71014;53.394;6.724;2023-08-20T14:26:26;7.35;;;2.03;;
81591;SDS011;71014;53.394;6.724;2023-08-20T14:28:52;6.97;;;1.60;;
81591;SDS011;71014;53.394;6.724;2023-08-20T14:31:18;5.30;;;1.48;;
81591;SDS011;71014;53.394;6.724;2023-08-20T14:33:44;6.03;;;1.30;;
81591;SDS011;71014;53.394;6.724;2023-08-20T14:36:11;5.55;;;1.75;;
81591;SDS011;71014;53.394;6.724;2023-08-20T14:38:37;7.10;;;1.75;;
81591;SDS011;71014;53.394;6.724;2023-08-20T14:41:03;9.38;;;2.20;;
81591;SDS011;71014;53.394;6.724;2023-08-20T14:43:29;7.85;;;1.88;;
81591;SDS011;71014;53.394;6.724;2023-08-20T14:45:55;9.77;;;2.25;;
81591;SDS011;71014;53.394;6.724;2023-08-20T14:48:22;5.53;;;1.90;;
81591;SDS011;71014;53.394;6.724;2023-08-20T14:50:49;5.70;;;1.95;;
81591;SDS011;71014;53.394;6.724;2023-08-20T14:53:15;5.82;;;1.90;;
81591;SDS011;71014;53.394;6.724;2023-08-20T14:55:41;5.45;;;1.58;;
81591;SDS011;71014;53.394;6.724;2023-08-20T14:58:07;6.43;;;1.70;;
81591;SDS011;71014;53.394;6.724;2023-08-20T15:00:33;7.95;;;1.98;;
81591;SDS011;71014;53.394;6.724;2023-08-20T15:02:59;10.63;;;1.98;;
81591;SDS011;71014;53.394;6.724;2023-08-20T15:05:25;3.78;;;1.70;;
81591;SDS011;71014;53.394;6.724;2023-08-20T15:07:51;8.15;;;1.88;;
81591;SDS011;71014;53.394;6.724;2023-08-20T15:10:17;6.63;;;1.90;;
81591;SDS011;71014;53.394;6.724;2023-08-20T15:12:43;9.85;;;2.22;;